Wes Sellars — WDF9302 — position and weather

sailwx.info

Track history (hours):
 
Tides and Currents Weather Stations Pressure Air Temp Water Temp Dewpoint Dewpoint Depression Visibility Wind Speed Wind Dir Waves Ship Positions

Wes Sellars

Owner: Florida Marine, LLC, Mandeville, LA. More information available from US FCC via Universal Licensing System and Coast Guard Vessel Documentation Center.

Last reported at 2018-Jun-20 16:30 UTC. Time now 2018-Jun-20 16:48 UTC.
Position N 29°34' W 094°56'.

Length 27 m; draft 2.9 m.

Type: Towing. MMSI: 367503760.

Date/timePositionNaut miles runAvg speedWind from/ knotsBaromVisibWave heightAir tempDewpointWater temp
2018-Jun-20 16:30N 29°34' W 094°56'4 6.2
2018-Jun-20 15:50N 29°38' W 094°58'2 6.4
2018-Jun-20 15:28N 29°40' W 094°59'3 5.6
2018-Jun-20 15:00N 29°42' W 095°01'6 1.5
2018-Jun-20 11:13N 29°47' W 095°04'  
2018-Jun-14 04:02N 29°46' W 095°07'0 0.0
2018-Jun-14 03:31N 29°46' W 095°07'0 0.0
2018-Jun-14 03:17N 29°46' W 095°07'1 0.0
2018-Jun-13 05:52N 29°46' W 095°06'1 1.4
2018-Jun-13 05:24N 29°46' W 095°07'0 0.0
2018-Jun-13 04:42N 29°46' W 095°07'0 0.0
2018-Jun-13 04:07N 29°46' W 095°07'0 0.0
2018-Jun-13 03:58N 29°46' W 095°07'  
Track history (hours):
 
Tides and Currents Weather Stations Pressure Air Temp Water Temp Dewpoint Dewpoint Depression Visibility Wind Speed Wind Dir Waves Ship Positions

Wes Sellars

Owner: Florida Marine, LLC, Mandeville, LA. More information available from US FCC via Universal Licensing System and Coast Guard Vessel Documentation Center.

Last reported at 2018-Jun-20 16:30 UTC. Time now 2018-Jun-20 16:48 UTC.
Position N 29°34' W 094°56'.

Length 27 m; draft 2.9 m.

Type: Towing. MMSI: 367503760.

Date/timePositionNaut miles runAvg speedWind from/ knotsBaromVisibWave heightAir tempDewpointWater temp
2018-Jun-20 16:30N 29°34' W 094°56'4 6.2
2018-Jun-20 15:50N 29°38' W 094°58'2 6.4
2018-Jun-20 15:28N 29°40' W 094°59'3 5.6
2018-Jun-20 15:00N 29°42' W 095°01'6 1.5
2018-Jun-20 11:13N 29°47' W 095°04'  
2018-Jun-14 04:02N 29°46' W 095°07'0 0.0
2018-Jun-14 03:31N 29°46' W 095°07'0 0.0
2018-Jun-14 03:17N 29°46' W 095°07'1 0.0
2018-Jun-13 05:52N 29°46' W 095°06'1 1.4
2018-Jun-13 05:24N 29°46' W 095°07'0 0.0
2018-Jun-13 04:42N 29°46' W 095°07'0 0.0
2018-Jun-13 04:07N 29°46' W 095°07'0 0.0
2018-Jun-13 03:58N 29°46' W 095°07'  

Dump ship's entire track history